sensor_id;sensor_type;location;lat;lon;timestamp;P1;durP1;ratioP1;P2;durP2;ratioP2
69463;SDS011;56665;41.106;16.688;2023-03-01T00:02:47;13.53;;;4.83;;
69463;SDS011;56665;41.106;16.688;2023-03-01T00:05:51;11.50;;;4.97;;
69463;SDS011;56665;41.106;16.688;2023-03-01T00:08:56;15.38;;;4.65;;
69463;SDS011;56665;41.106;16.688;2023-03-01T00:12:00;11.55;;;4.32;;
69463;SDS011;56665;41.106;16.688;2023-03-01T00:15:07;9.90;;;4.60;;
69463;SDS011;56665;41.106;16.688;2023-03-01T00:18:12;19.57;;;5.63;;
69463;SDS011;56665;41.106;16.688;2023-03-01T00:21:16;17.02;;;5.35;;
69463;SDS011;56665;41.106;16.688;2023-03-01T00:24:20;11.57;;;5.50;;
69463;SDS011;56665;41.106;16.688;2023-03-01T00:27:23;14.27;;;5.00;;
69463;SDS011;56665;41.106;16.688;2023-03-01T00:30:27;20.15;;;5.82;;
69463;SDS011;56665;41.106;16.688;2023-03-01T00:33:32;16.60;;;5.67;;
69463;SDS011;56665;41.106;16.688;2023-03-01T00:36:38;11.63;;;4.70;;
69463;SDS011;56665;41.106;16.688;2023-03-01T00:39:42;10.00;;;4.38;;
69463;SDS011;56665;41.106;16.688;2023-03-01T00:42:45;10.05;;;4.50;;
69463;SDS011;56665;41.106;16.688;2023-03-01T00:45:50;13.63;;;4.38;;
69463;SDS011;56665;41.106;16.688;2023-03-01T00:48:55;18.73;;;9.30;;
69463;SDS011;56665;41.106;16.688;2023-03-01T00:51:59;14.63;;;6.43;;
69463;SDS011;56665;41.106;16.688;2023-03-01T00:55:03;17.02;;;7.75;;
69463;SDS011;56665;41.106;16.688;2023-03-01T00:58:07;11.38;;;7.10;;
69463;SDS011;56665;41.106;16.688;2023-03-01T01:01:12;19.75;;;6.50;;
69463;SDS011;56665;41.106;16.688;2023-03-01T01:04:21;15.57;;;6.30;;
69463;SDS011;56665;41.106;16.688;2023-03-01T01:07:26;15.82;;;6.30;;
69463;SDS011;56665;41.106;16.688;2023-03-01T01:10:33;12.55;;;5.93;;
69463;SDS011;56665;41.106;16.688;2023-03-01T01:13:40;14.75;;;6.10;;
69463;SDS011;56665;41.106;16.688;2023-03-01T01:16:44;13.40;;;6.15;;
69463;SDS011;56665;41.106;16.688;2023-03-01T01:19:48;12.20;;;5.87;;
69463;SDS011;56665;41.106;16.688;2023-03-01T01:22:52;14.18;;;6.60;;
69463;SDS011;56665;41.106;16.688;2023-03-01T01:25:56;13.43;;;6.10;;
69463;SDS011;56665;41.106;16.688;2023-03-01T01:29:01;15.43;;;5.90;;
69463;SDS011;56665;41.106;16.688;2023-03-01T01:32:07;15.70;;;5.88;;
69463;SDS011;56665;41.106;16.688;2023-03-01T01:35:10;21.53;;;6.93;;
69463;SDS011;56665;41.106;16.688;2023-03-01T01:38:14;15.02;;;6.60;;
69463;SDS011;56665;41.106;16.688;2023-03-01T01:41:19;17.85;;;7.70;;
69463;SDS011;56665;41.106;16.688;2023-03-01T01:44:25;16.15;;;7.00;;
69463;SDS011;56665;41.106;16.688;2023-03-01T01:47:29;15.23;;;6.93;;
69463;SDS011;56665;41.106;16.688;2023-03-01T01:50:34;17.03;;;7.20;;
69463;SDS011;56665;41.106;16.688;2023-03-01T01:53:43;17.20;;;7.10;;
69463;SDS011;56665;41.106;16.688;2023-03-01T01:56:51;17.52;;;7.38;;
69463;SDS011;56665;41.106;16.688;2023-03-01T02:00:00;17.23;;;7.50;;
69463;SDS011;56665;41.106;16.688;2023-03-01T02:03:26;17.65;;;7.55;;
69463;SDS011;56665;41.106;16.688;2023-03-01T02:06:41;13.83;;;6.63;;
69463;SDS011;56665;41.106;16.688;2023-03-01T02:09:55;18.17;;;7.13;;
69463;SDS011;56665;41.106;16.688;2023-03-01T02:12:59;16.92;;;7.32;;
69463;SDS011;56665;41.106;16.688;2023-03-01T02:16:05;20.30;;;6.90;;
69463;SDS011;56665;41.106;16.688;2023-03-01T02:19:15;19.25;;;7.78;;
69463;SDS011;56665;41.106;16.688;2023-03-01T02:22:44;16.40;;;7.43;;
69463;SDS011;56665;41.106;16.688;2023-03-01T02:26:00;19.45;;;8.77;;
69463;SDS011;56665;41.106;16.688;2023-03-01T02:29:19;18.80;;;7.93;;
69463;SDS011;56665;41.106;16.688;2023-03-01T02:32:24;21.40;;;7.65;;
69463;SDS011;56665;41.106;16.688;2023-03-01T02:35:35;14.40;;;7.97;;
69463;SDS011;56665;41.106;16.688;2023-03-01T02:38:42;20.27;;;7.77;;
69463;SDS011;56665;41.106;16.688;2023-03-01T02:41:48;15.75;;;8.65;;
69463;SDS011;56665;41.106;16.688;2023-03-01T02:44:55;23.15;;;9.75;;
69463;SDS011;56665;41.106;16.688;2023-03-01T02:47:59;17.98;;;8.10;;
69463;SDS011;56665;41.106;16.688;2023-03-01T02:51:05;20.05;;;8.60;;
69463;SDS011;56665;41.106;16.688;2023-03-01T02:54:46;16.37;;;7.70;;
69463;SDS011;56665;41.106;16.688;2023-03-01T02:58:01;19.42;;;8.13;;
69463;SDS011;56665;41.106;16.688;2023-03-01T03:01:06;22.80;;;8.48;;
69463;SDS011;56665;41.106;16.688;2023-03-01T03:04:10;18.83;;;8.38;;
69463;SDS011;56665;41.106;16.688;2023-03-01T03:07:24;23.85;;;9.00;;
69463;SDS011;56665;41.106;16.688;2023-03-01T03:10:29;20.80;;;8.70;;
69463;SDS011;56665;41.106;16.688;2023-03-01T03:13:40;20.27;;;8.57;;
69463;SDS011;56665;41.106;16.688;2023-03-01T03:16:51;24.10;;;9.02;;
69463;SDS011;56665;41.106;16.688;2023-03-01T03:19:55;23.63;;;9.25;;
69463;SDS011;56665;41.106;16.688;2023-03-01T03:23:00;28.67;;;9.93;;
69463;SDS011;56665;41.106;16.688;2023-03-01T03:26:04;23.23;;;9.00;;
69463;SDS011;56665;41.106;16.688;2023-03-01T03:29:08;20.42;;;8.55;;
69463;SDS011;56665;41.106;16.688;2023-03-01T03:32:12;21.13;;;8.48;;
69463;SDS011;56665;41.106;16.688;2023-03-01T03:35:17;25.90;;;9.57;;
69463;SDS011;56665;41.106;16.688;2023-03-01T03:38:24;24.08;;;8.73;;
69463;SDS011;56665;41.106;16.688;2023-03-01T03:41:31;27.53;;;8.70;;
69463;SDS011;56665;41.106;16.688;2023-03-01T03:44:38;27.75;;;9.05;;
69463;SDS011;56665;41.106;16.688;2023-03-01T03:47:43;25.38;;;9.40;;
69463;SDS011;56665;41.106;16.688;2023-03-01T03:50:57;22.60;;;8.73;;
69463;SDS011;56665;41.106;16.688;2023-03-01T03:54:02;24.15;;;9.80;;
69463;SDS011;56665;41.106;16.688;2023-03-01T03:57:08;21.67;;;8.67;;
69463;SDS011;56665;41.106;16.688;2023-03-01T04:00:13;21.33;;;10.15;;
69463;SDS011;56665;41.106;16.688;2023-03-01T04:03:19;27.15;;;11.18;;
69463;SDS011;56665;41.106;16.688;2023-03-01T04:06:24;25.65;;;10.98;;
69463;SDS011;56665;41.106;16.688;2023-03-01T04:09:31;30.63;;;12.13;;
69463;SDS011;56665;41.106;16.688;2023-03-01T04:12:36;26.73;;;12.90;;
69463;SDS011;56665;41.106;16.688;2023-03-01T04:15:40;29.08;;;12.68;;
69463;SDS011;56665;41.106;16.688;2023-03-01T04:18:47;27.35;;;11.00;;
69463;SDS011;56665;41.106;16.688;2023-03-01T04:21:52;27.63;;;11.60;;
69463;SDS011;56665;41.106;16.688;2023-03-01T04:24:57;30.30;;;12.55;;
69463;SDS011;56665;41.106;16.688;2023-03-01T04:28:01;28.57;;;12.57;;
69463;SDS011;56665;41.106;16.688;2023-03-01T04:31:09;30.55;;;12.05;;
69463;SDS011;56665;41.106;16.688;2023-03-01T04:34:16;25.10;;;11.00;;
69463;SDS011;56665;41.106;16.688;2023-03-01T04:37:20;21.58;;;10.13;;
69463;SDS011;56665;41.106;16.688;2023-03-01T04:40:25;23.08;;;10.45;;
69463;SDS011;56665;41.106;16.688;2023-03-01T04:43:30;20.90;;;9.70;;
69463;SDS011;56665;41.106;16.688;2023-03-01T04:46:37;20.80;;;9.68;;
69463;SDS011;56665;41.106;16.688;2023-03-01T04:49:40;19.63;;;9.90;;
69463;SDS011;56665;41.106;16.688;2023-03-01T04:52:44;23.13;;;10.93;;
69463;SDS011;56665;41.106;16.688;2023-03-01T04:55:49;24.23;;;10.13;;
69463;SDS011;56665;41.106;16.688;2023-03-01T04:58:54;23.07;;;9.47;;
69463;SDS011;56665;41.106;16.688;2023-03-01T05:01:57;21.60;;;9.02;;
69463;SDS011;56665;41.106;16.688;2023-03-01T05:05:04;23.10;;;10.07;;
69463;SDS011;56665;41.106;16.688;2023-03-01T05:08:09;17.92;;;9.32;;
69463;SDS011;56665;41.106;16.688;2023-03-01T05:11:20;21.33;;;10.07;;
69463;SDS011;56665;41.106;16.688;2023-03-01T05:14:25;21.43;;;8.77;;
69463;SDS011;56665;41.106;16.688;2023-03-01T05:17:30;20.73;;;9.60;;
69463;SDS011;56665;41.106;16.688;2023-03-01T05:20:34;22.55;;;9.77;;
69463;SDS011;56665;41.106;16.688;2023-03-01T05:23:39;21.88;;;10.43;;
69463;SDS011;56665;41.106;16.688;2023-03-01T05:26:44;21.30;;;10.68;;
69463;SDS011;56665;41.106;16.688;2023-03-01T05:29:48;23.60;;;10.97;;
69463;SDS011;56665;41.106;16.688;2023-03-01T05:32:54;19.52;;;10.60;;
69463;SDS011;56665;41.106;16.688;2023-03-01T05:35:59;23.95;;;12.18;;
69463;SDS011;56665;41.106;16.688;2023-03-01T05:39:04;35.97;;;14.82;;
69463;SDS011;56665;41.106;16.688;2023-03-01T05:42:10;25.50;;;13.75;;
69463;SDS011;56665;41.106;16.688;2023-03-01T05:45:16;28.23;;;15.10;;
69463;SDS011;56665;41.106;16.688;2023-03-01T05:48:23;26.75;;;14.15;;
69463;SDS011;56665;41.106;16.688;2023-03-01T05:51:28;30.15;;;15.18;;
69463;SDS011;56665;41.106;16.688;2023-03-01T05:54:34;24.17;;;13.00;;
69463;SDS011;56665;41.106;16.688;2023-03-01T05:57:39;25.15;;;13.63;;
69463;SDS011;56665;41.106;16.688;2023-03-01T06:00:43;29.47;;;13.13;;
69463;SDS011;56665;41.106;16.688;2023-03-01T06:03:48;30.88;;;14.02;;
69463;SDS011;56665;41.106;16.688;2023-03-01T06:06:53;25.52;;;12.95;;
69463;SDS011;56665;41.106;16.688;2023-03-01T06:09:57;28.13;;;12.85;;
69463;SDS011;56665;41.106;16.688;2023-03-01T06:13:02;22.77;;;11.77;;
69463;SDS011;56665;41.106;16.688;2023-03-01T06:16:07;20.70;;;10.53;;
69463;SDS011;56665;41.106;16.688;2023-03-01T06:19:11;20.00;;;10.52;;
69463;SDS011;56665;41.106;16.688;2023-03-01T06:22:17;25.05;;;11.07;;
69463;SDS011;56665;41.106;16.688;2023-03-01T06:25:22;18.88;;;8.77;;
69463;SDS011;56665;41.106;16.688;2023-03-01T06:28:26;15.85;;;7.93;;
69463;SDS011;56665;41.106;16.688;2023-03-01T06:31:31;16.03;;;7.97;;
69463;SDS011;56665;41.106;16.688;2023-03-01T06:34:37;17.38;;;7.05;;
69463;SDS011;56665;41.106;16.688;2023-03-01T06:37:41;14.50;;;7.85;;
69463;SDS011;56665;41.106;16.688;2023-03-01T06:40:45;13.48;;;6.75;;
69463;SDS011;56665;41.106;16.688;2023-03-01T06:43:58;12.00;;;6.07;;
69463;SDS011;56665;41.106;16.688;2023-03-01T06:47:02;13.23;;;5.37;;
69463;SDS011;56665;41.106;16.688;2023-03-01T06:50:08;11.85;;;5.90;;
69463;SDS011;56665;41.106;16.688;2023-03-01T06:53:12;9.40;;;5.60;;
69463;SDS011;56665;41.106;16.688;2023-03-01T06:56:16;15.40;;;5.03;;
69463;SDS011;56665;41.106;16.688;2023-03-01T06:59:20;8.93;;;3.38;;
69463;SDS011;56665;41.106;16.688;2023-03-01T07:02:24;6.97;;;2.63;;
69463;SDS011;56665;41.106;16.688;2023-03-01T07:05:29;7.25;;;2.88;;
69463;SDS011;56665;41.106;16.688;2023-03-01T07:08:33;8.68;;;3.75;;
69463;SDS011;56665;41.106;16.688;2023-03-01T07:11:38;7.10;;;4.00;;
69463;SDS011;56665;41.106;16.688;2023-03-01T07:14:43;12.02;;;4.50;;
69463;SDS011;56665;41.106;16.688;2023-03-01T07:17:47;6.23;;;3.10;;
69463;SDS011;56665;41.106;16.688;2023-03-01T07:20:53;6.60;;;2.30;;
69463;SDS011;56665;41.106;16.688;2023-03-01T07:23:56;6.90;;;3.67;;
69463;SDS011;56665;41.106;16.688;2023-03-01T07:27:01;13.52;;;5.35;;
69463;SDS011;56665;41.106;16.688;2023-03-01T07:30:05;9.38;;;5.00;;
69463;SDS011;56665;41.106;16.688;2023-03-01T07:33:09;10.83;;;5.47;;
69463;SDS011;56665;41.106;16.688;2023-03-01T07:36:13;13.00;;;5.63;;
69463;SDS011;56665;41.106;16.688;2023-03-01T07:39:17;12.57;;;5.40;;
69463;SDS011;56665;41.106;16.688;2023-03-01T07:42:22;13.30;;;6.78;;
69463;SDS011;56665;41.106;16.688;2023-03-01T07:45:26;12.57;;;5.95;;
69463;SDS011;56665;41.106;16.688;2023-03-01T07:48:29;10.60;;;6.03;;
69463;SDS011;56665;41.106;16.688;2023-03-01T07:51:35;10.85;;;6.05;;
69463;SDS011;56665;41.106;16.688;2023-03-01T07:54:38;9.57;;;5.68;;
69463;SDS011;56665;41.106;16.688;2023-03-01T07:57:45;10.90;;;6.00;;
69463;SDS011;56665;41.106;16.688;2023-03-01T08:00:49;15.38;;;7.80;;
69463;SDS011;56665;41.106;16.688;2023-03-01T08:03:52;17.40;;;8.63;;
69463;SDS011;56665;41.106;16.688;2023-03-01T08:06:57;17.45;;;8.95;;
69463;SDS011;56665;41.106;16.688;2023-03-01T08:10:01;20.77;;;11.27;;
69463;SDS011;56665;41.106;16.688;2023-03-01T08:13:06;19.23;;;11.15;;
69463;SDS011;56665;41.106;16.688;2023-03-01T08:16:11;22.05;;;11.95;;
69463;SDS011;56665;41.106;16.688;2023-03-01T08:19:16;25.30;;;14.83;;
69463;SDS011;56665;41.106;16.688;2023-03-01T08:22:20;29.48;;;16.08;;
69463;SDS011;56665;41.106;16.688;2023-03-01T08:25:24;26.40;;;14.45;;
69463;SDS011;56665;41.106;16.688;2023-03-01T08:28:28;24.15;;;12.57;;
69463;SDS011;56665;41.106;16.688;2023-03-01T08:31:33;20.77;;;12.18;;
69463;SDS011;56665;41.106;16.688;2023-03-01T08:34:39;18.23;;;10.07;;
69463;SDS011;56665;41.106;16.688;2023-03-01T08:37:43;17.92;;;9.38;;
69463;SDS011;56665;41.106;16.688;2023-03-01T08:40:47;15.20;;;8.80;;
69463;SDS011;56665;41.106;16.688;2023-03-01T08:43:52;18.25;;;8.85;;
69463;SDS011;56665;41.106;16.688;2023-03-01T08:47:01;18.23;;;10.35;;
69463;SDS011;56665;41.106;16.688;2023-03-01T08:50:06;16.80;;;6.80;;
69463;SDS011;56665;41.106;16.688;2023-03-01T08:53:11;12.73;;;6.40;;
69463;SDS011;56665;41.106;16.688;2023-03-01T08:56:15;9.35;;;5.20;;
69463;SDS011;56665;41.106;16.688;2023-03-01T08:59:19;9.73;;;3.10;;
69463;SDS011;56665;41.106;16.688;2023-03-01T09:02:23;5.35;;;2.90;;
69463;SDS011;56665;41.106;16.688;2023-03-01T09:05:30;6.73;;;2.70;;
69463;SDS011;56665;41.106;16.688;2023-03-01T09:08:36;7.22;;;3.00;;
69463;SDS011;56665;41.106;16.688;2023-03-01T09:11:46;7.13;;;3.97;;
69463;SDS011;56665;41.106;16.688;2023-03-01T09:14:50;11.15;;;4.10;;
69463;SDS011;56665;41.106;16.688;2023-03-01T09:17:54;15.63;;;7.60;;
69463;SDS011;56665;41.106;16.688;2023-03-01T09:21:02;15.33;;;7.13;;
69463;SDS011;56665;41.106;16.688;2023-03-01T09:24:12;15.32;;;7.53;;
69463;SDS011;56665;41.106;16.688;2023-03-01T09:27:17;17.13;;;7.30;;
69463;SDS011;56665;41.106;16.688;2023-03-01T09:30:22;15.13;;;6.85;;
69463;SDS011;56665;41.106;16.688;2023-03-01T09:33:29;16.02;;;9.40;;
69463;SDS011;56665;41.106;16.688;2023-03-01T09:36:34;23.10;;;13.40;;
69463;SDS011;56665;41.106;16.688;2023-03-01T09:39:39;20.63;;;12.27;;
69463;SDS011;56665;41.106;16.688;2023-03-01T09:42:47;19.45;;;10.82;;
69463;SDS011;56665;41.106;16.688;2023-03-01T09:45:59;20.90;;;10.85;;
69463;SDS011;56665;41.106;16.688;2023-03-01T09:49:52;26.27;;;12.02;;
69463;SDS011;56665;41.106;16.688;2023-03-01T09:56:00;20.83;;;12.82;;
69463;SDS011;56665;41.106;16.688;2023-03-01T10:02:21;37.63;;;19.83;;
69463;SDS011;56665;41.106;16.688;2023-03-01T10:05:34;33.88;;;18.85;;
69463;SDS011;56665;41.106;16.688;2023-03-01T10:08:50;43.30;;;25.30;;
69463;SDS011;56665;41.106;16.688;2023-03-01T10:12:04;36.30;;;19.60;;
69463;SDS011;56665;41.106;16.688;2023-03-01T10:15:22;26.80;;;14.40;;
69463;SDS011;56665;41.106;16.688;2023-03-01T10:18:35;27.70;;;15.15;;
69463;SDS011;56665;41.106;16.688;2023-03-01T10:21:43;23.33;;;12.93;;
69463;SDS011;56665;41.106;16.688;2023-03-01T10:24:49;21.63;;;11.43;;
69463;SDS011;56665;41.106;16.688;2023-03-01T10:27:59;26.23;;;12.88;;
69463;SDS011;56665;41.106;16.688;2023-03-01T10:34:52;22.83;;;12.43;;
69463;SDS011;56665;41.106;16.688;2023-03-01T10:37:57;23.63;;;13.40;;
69463;SDS011;56665;41.106;16.688;2023-03-01T10:41:14;24.27;;;11.57;;
69463;SDS011;56665;41.106;16.688;2023-03-01T10:45:14;21.65;;;9.75;;
69463;SDS011;56665;41.106;16.688;2023-03-01T10:47:45;22.25;;;10.93;;
69463;SDS011;56665;41.106;16.688;2023-03-01T10:50:49;22.00;;;10.30;;
69463;SDS011;56665;41.106;16.688;2023-03-01T10:54:25;31.95;;;12.45;;
69463;SDS011;56665;41.106;16.688;2023-03-01T10:57:33;22.33;;;11.30;;
69463;SDS011;56665;41.106;16.688;2023-03-01T11:00:47;28.58;;;14.80;;
69463;SDS011;56665;41.106;16.688;2023-03-01T11:04:10;28.92;;;14.88;;
69463;SDS011;56665;41.106;16.688;2023-03-01T11:07:17;31.70;;;10.50;;
69463;SDS011;56665;41.106;16.688;2023-03-01T11:10:22;24.05;;;10.15;;
69463;SDS011;56665;41.106;16.688;2023-03-01T11:13:27;22.03;;;9.00;;
69463;SDS011;56665;41.106;16.688;2023-03-01T11:16:35;28.30;;;10.75;;
69463;SDS011;56665;41.106;16.688;2023-03-01T11:19:42;27.20;;;11.93;;
69463;SDS011;56665;41.106;16.688;2023-03-01T11:22:47;20.48;;;10.52;;
69463;SDS011;56665;41.106;16.688;2023-03-01T11:25:59;27.70;;;10.48;;
69463;SDS011;56665;41.106;16.688;2023-03-01T11:29:13;20.43;;;8.80;;
69463;SDS011;56665;41.106;16.688;2023-03-01T11:32:41;21.02;;;9.27;;
69463;SDS011;56665;41.106;16.688;2023-03-01T11:35:55;21.40;;;9.27;;
69463;SDS011;56665;41.106;16.688;2023-03-01T11:39:17;18.05;;;7.97;;
69463;SDS011;56665;41.106;16.688;2023-03-01T11:42:30;21.38;;;8.55;;
69463;SDS011;56665;41.106;16.688;2023-03-01T12:03:23;19.17;;;8.57;;
69463;SDS011;56665;41.106;16.688;2023-03-01T12:10:25;23.20;;;9.65;;
69463;SDS011;56665;41.106;16.688;2023-03-01T12:30:39;20.25;;;8.90;;
69463;SDS011;56665;41.106;16.688;2023-03-01T12:33:59;21.10;;;8.63;;
69463;SDS011;56665;41.106;16.688;2023-03-01T12:37:29;20.87;;;8.10;;
69463;SDS011;56665;41.106;16.688;2023-03-01T12:44:12;22.95;;;8.43;;
69463;SDS011;56665;41.106;16.688;2023-03-01T12:47:39;21.17;;;8.05;;
69463;SDS011;56665;41.106;16.688;2023-03-01T12:51:08;25.27;;;6.88;;
69463;SDS011;56665;41.106;16.688;2023-03-01T12:54:30;16.97;;;7.57;;
69463;SDS011;56665;41.106;16.688;2023-03-01T12:57:45;17.45;;;7.45;;
69463;SDS011;56665;41.106;16.688;2023-03-01T13:01:14;14.90;;;6.40;;
69463;SDS011;56665;41.106;16.688;2023-03-01T13:08:14;18.13;;;6.32;;
69463;SDS011;56665;41.106;16.688;2023-03-01T13:11:25;17.83;;;7.30;;
69463;SDS011;56665;41.106;16.688;2023-03-01T13:14:35;15.68;;;5.93;;
69463;SDS011;56665;41.106;16.688;2023-03-01T13:17:42;15.57;;;7.57;;
69463;SDS011;56665;41.106;16.688;2023-03-01T13:20:49;17.92;;;7.88;;
69463;SDS011;56665;41.106;16.688;2023-03-01T13:23:54;15.90;;;6.18;;
69463;SDS011;56665;41.106;16.688;2023-03-01T13:36:46;13.70;;;5.60;;
69463;SDS011;56665;41.106;16.688;2023-03-01T13:39:52;15.07;;;4.80;;
69463;SDS011;56665;41.106;16.688;2023-03-01T13:42:56;10.57;;;5.00;;
69463;SDS011;56665;41.106;16.688;2023-03-01T13:46:21;15.18;;;5.07;;
69463;SDS011;56665;41.106;16.688;2023-03-01T13:49:27;18.30;;;5.97;;
69463;SDS011;56665;41.106;16.688;2023-03-01T13:52:44;16.38;;;6.50;;
69463;SDS011;56665;41.106;16.688;2023-03-01T13:56:02;18.38;;;7.22;;
69463;SDS011;56665;41.106;16.688;2023-03-01T13:59:16;14.77;;;5.47;;
69463;SDS011;56665;41.106;16.688;2023-03-01T14:02:21;15.57;;;7.47;;
69463;SDS011;56665;41.106;16.688;2023-03-01T14:05:25;14.30;;;5.97;;
69463;SDS011;56665;41.106;16.688;2023-03-01T14:08:30;13.88;;;6.00;;
69463;SDS011;56665;41.106;16.688;2023-03-01T14:14:56;14.07;;;5.80;;
69463;SDS011;56665;41.106;16.688;2023-03-01T14:18:21;13.85;;;6.20;;
69463;SDS011;56665;41.106;16.688;2023-03-01T14:21:32;16.65;;;7.18;;
69463;SDS011;56665;41.106;16.688;2023-03-01T14:24:37;16.00;;;7.80;;
69463;SDS011;56665;41.106;16.688;2023-03-01T14:27:43;21.48;;;7.80;;
69463;SDS011;56665;41.106;16.688;2023-03-01T14:30:49;14.43;;;5.60;;
69463;SDS011;56665;41.106;16.688;2023-03-01T14:33:55;12.45;;;5.50;;
69463;SDS011;56665;41.106;16.688;2023-03-01T14:37:09;12.85;;;5.00;;
69463;SDS011;56665;41.106;16.688;2023-03-01T14:40:28;16.85;;;6.70;;
69463;SDS011;56665;41.106;16.688;2023-03-01T14:43:35;14.23;;;5.13;;
69463;SDS011;56665;41.106;16.688;2023-03-01T14:46:43;10.13;;;4.77;;
69463;SDS011;56665;41.106;16.688;2023-03-01T14:49:49;20.30;;;5.13;;
69463;SDS011;56665;41.106;16.688;2023-03-01T14:53:02;10.82;;;4.30;;
69463;SDS011;56665;41.106;16.688;2023-03-01T14:56:17;11.32;;;5.50;;
69463;SDS011;56665;41.106;16.688;2023-03-01T14:59:22;14.80;;;5.20;;
69463;SDS011;56665;41.106;16.688;2023-03-01T15:02:27;16.67;;;6.43;;
69463;SDS011;56665;41.106;16.688;2023-03-01T15:05:32;12.68;;;5.95;;
69463;SDS011;56665;41.106;16.688;2023-03-01T15:08:41;11.18;;;5.72;;
69463;SDS011;56665;41.106;16.688;2023-03-01T15:11:49;11.70;;;5.10;;
69463;SDS011;56665;41.106;16.688;2023-03-01T15:14:53;11.00;;;4.70;;
69463;SDS011;56665;41.106;16.688;2023-03-01T15:18:05;14.60;;;4.93;;
69463;SDS011;56665;41.106;16.688;2023-03-01T15:21:33;12.68;;;6.22;;
69463;SDS011;56665;41.106;16.688;2023-03-01T15:24:39;18.77;;;6.45;;
69463;SDS011;56665;41.106;16.688;2023-03-01T15:27:46;21.67;;;10.57;;
69463;SDS011;56665;41.106;16.688;2023-03-01T15:31:02;24.08;;;10.10;;
69463;SDS011;56665;41.106;16.688;2023-03-01T15:34:11;21.10;;;8.90;;
69463;SDS011;56665;41.106;16.688;2023-03-01T15:40:57;16.38;;;7.57;;
69463;SDS011;56665;41.106;16.688;2023-03-01T15:44:15;15.88;;;5.57;;
69463;SDS011;56665;41.106;16.688;2023-03-01T15:47:29;13.55;;;5.85;;
69463;SDS011;56665;41.106;16.688;2023-03-01T15:50:34;13.37;;;7.83;;
69463;SDS011;56665;41.106;16.688;2023-03-01T15:53:45;12.33;;;6.57;;
69463;SDS011;56665;41.106;16.688;2023-03-01T15:56:53;43.58;;;26.77;;
69463;SDS011;56665;41.106;16.688;2023-03-01T15:59:56;35.63;;;19.90;;
69463;SDS011;56665;41.106;16.688;2023-03-01T16:03:00;20.35;;;9.73;;
69463;SDS011;56665;41.106;16.688;2023-03-01T16:06:04;16.30;;;8.60;;
69463;SDS011;56665;41.106;16.688;2023-03-01T16:09:09;13.50;;;7.23;;
69463;SDS011;56665;41.106;16.688;2023-03-01T16:12:13;10.23;;;5.88;;
69463;SDS011;56665;41.106;16.688;2023-03-01T16:15:21;8.15;;;5.05;;
69463;SDS011;56665;41.106;16.688;2023-03-01T16:18:27;10.68;;;4.40;;
69463;SDS011;56665;41.106;16.688;2023-03-01T16:21:31;10.43;;;3.95;;
69463;SDS011;56665;41.106;16.688;2023-03-01T16:24:36;7.32;;;4.00;;
69463;SDS011;56665;41.106;16.688;2023-03-01T16:27:47;10.68;;;3.78;;
69463;SDS011;56665;41.106;16.688;2023-03-01T16:30:52;9.85;;;4.55;;
69463;SDS011;56665;41.106;16.688;2023-03-01T16:33:57;9.90;;;4.97;;
69463;SDS011;56665;41.106;16.688;2023-03-01T16:37:02;12.00;;;5.17;;
69463;SDS011;56665;41.106;16.688;2023-03-01T16:40:10;10.07;;;5.07;;
69463;SDS011;56665;41.106;16.688;2023-03-01T16:43:20;10.27;;;6.03;;
69463;SDS011;56665;41.106;16.688;2023-03-01T16:46:25;9.82;;;5.05;;
69463;SDS011;56665;41.106;16.688;2023-03-01T16:49:31;11.00;;;6.47;;
69463;SDS011;56665;41.106;16.688;2023-03-01T16:52:35;10.80;;;5.80;;
69463;SDS011;56665;41.106;16.688;2023-03-01T16:55:39;9.80;;;5.35;;
69463;SDS011;56665;41.106;16.688;2023-03-01T16:58:49;13.32;;;5.97;;
69463;SDS011;56665;41.106;16.688;2023-03-01T17:01:53;16.60;;;8.35;;
69463;SDS011;56665;41.106;16.688;2023-03-01T17:04:57;19.75;;;9.85;;
69463;SDS011;56665;41.106;16.688;2023-03-01T17:08:01;19.07;;;9.80;;
69463;SDS011;56665;41.106;16.688;2023-03-01T17:11:11;19.60;;;9.23;;
69463;SDS011;56665;41.106;16.688;2023-03-01T17:14:17;18.55;;;9.45;;
69463;SDS011;56665;41.106;16.688;2023-03-01T17:17:22;15.10;;;9.55;;
69463;SDS011;56665;41.106;16.688;2023-03-01T17:20:26;17.83;;;10.18;;
69463;SDS011;56665;41.106;16.688;2023-03-01T17:23:30;21.10;;;14.17;;
69463;SDS011;56665;41.106;16.688;2023-03-01T17:26:36;19.70;;;11.95;;
69463;SDS011;56665;41.106;16.688;2023-03-01T17:29:40;17.58;;;12.18;;
69463;SDS011;56665;41.106;16.688;2023-03-01T17:32:44;22.63;;;13.80;;
69463;SDS011;56665;41.106;16.688;2023-03-01T17:35:49;23.20;;;14.90;;
69463;SDS011;56665;41.106;16.688;2023-03-01T17:38:52;36.15;;;21.60;;
69463;SDS011;56665;41.106;16.688;2023-03-01T17:41:57;28.03;;;16.00;;
69463;SDS011;56665;41.106;16.688;2023-03-01T17:45:06;24.00;;;13.35;;
69463;SDS011;56665;41.106;16.688;2023-03-01T17:48:10;21.58;;;11.77;;
69463;SDS011;56665;41.106;16.688;2023-03-01T17:51:15;18.42;;;10.93;;
69463;SDS011;56665;41.106;16.688;2023-03-01T17:54:19;18.90;;;11.13;;
69463;SDS011;56665;41.106;16.688;2023-03-01T17:57:23;19.20;;;9.60;;
69463;SDS011;56665;41.106;16.688;2023-03-01T18:00:28;19.80;;;9.93;;
69463;SDS011;56665;41.106;16.688;2023-03-01T18:03:32;26.05;;;15.38;;
69463;SDS011;56665;41.106;16.688;2023-03-01T18:06:36;32.42;;;21.52;;
69463;SDS011;56665;41.106;16.688;2023-03-01T18:09:44;33.85;;;21.80;;
69463;SDS011;56665;41.106;16.688;2023-03-01T18:12:47;23.47;;;16.17;;
69463;SDS011;56665;41.106;16.688;2023-03-01T18:15:52;22.48;;;12.57;;
69463;SDS011;56665;41.106;16.688;2023-03-01T18:19:03;21.45;;;11.77;;
69463;SDS011;56665;41.106;16.688;2023-03-01T18:22:08;26.27;;;15.68;;
69463;SDS011;56665;41.106;16.688;2023-03-01T18:25:12;28.80;;;14.88;;
69463;SDS011;56665;41.106;16.688;2023-03-01T18:28:17;24.27;;;13.50;;
69463;SDS011;56665;41.106;16.688;2023-03-01T18:31:21;25.20;;;13.75;;
69463;SDS011;56665;41.106;16.688;2023-03-01T18:34:26;31.02;;;17.90;;
69463;SDS011;56665;41.106;16.688;2023-03-01T18:37:30;40.55;;;24.80;;
69463;SDS011;56665;41.106;16.688;2023-03-01T18:40:36;51.53;;;31.08;;
69463;SDS011;56665;41.106;16.688;2023-03-01T18:43:39;32.20;;;17.77;;
69463;SDS011;56665;41.106;16.688;2023-03-01T18:46:44;25.35;;;15.63;;
69463;SDS011;56665;41.106;16.688;2023-03-01T18:49:48;24.30;;;13.65;;
69463;SDS011;56665;41.106;16.688;2023-03-01T18:52:52;19.63;;;12.55;;
69463;SDS011;56665;41.106;16.688;2023-03-01T18:55:58;22.17;;;12.40;;
69463;SDS011;56665;41.106;16.688;2023-03-01T18:59:04;21.20;;;12.73;;
69463;SDS011;56665;41.106;16.688;2023-03-01T19:02:09;20.98;;;11.98;;
69463;SDS011;56665;41.106;16.688;2023-03-01T19:05:15;20.70;;;11.93;;
69463;SDS011;56665;41.106;16.688;2023-03-01T19:08:19;17.77;;;10.38;;
69463;SDS011;56665;41.106;16.688;2023-03-01T19:11:23;18.83;;;11.27;;
69463;SDS011;56665;41.106;16.688;2023-03-01T19:14:30;19.10;;;11.83;;
69463;SDS011;56665;41.106;16.688;2023-03-01T19:17:33;20.35;;;11.43;;
69463;SDS011;56665;41.106;16.688;2023-03-01T19:20:37;20.55;;;11.75;;
69463;SDS011;56665;41.106;16.688;2023-03-01T19:23:42;19.65;;;12.00;;
69463;SDS011;56665;41.106;16.688;2023-03-01T19:26:46;25.30;;;14.38;;